createdAt,value
2022-09-07T00:02:14.136Z,32.20
2022-09-07T00:04:46.587Z,32.20
2022-09-07T00:07:17.891Z,32.10
2022-09-07T00:09:48.914Z,32.00
2022-09-07T00:12:19.648Z,32.00
2022-09-07T00:14:50.494Z,32.00
2022-09-07T00:17:21.244Z,32.00
2022-09-07T00:19:53.565Z,31.80
2022-09-07T00:22:24.283Z,31.70
2022-09-07T00:24:54.992Z,31.60
2022-09-07T00:27:25.811Z,31.70
2022-09-07T00:29:56.528Z,31.70
2022-09-07T00:32:27.335Z,31.70
2022-09-07T00:34:59.675Z,31.70
2022-09-07T00:37:30.393Z,31.50
2022-09-07T00:40:01.295Z,31.50
2022-09-07T00:42:32.057Z,31.40
2022-09-07T00:45:17.311Z,31.30
2022-09-07T00:47:54.798Z,31.20
2022-09-07T00:50:32.124Z,31.20
2022-09-07T00:53:06.359Z,31.00
2022-09-07T00:55:38.296Z,31.00
2022-09-07T00:58:10.010Z,30.90
2022-09-07T01:00:44.401Z,30.90
2022-09-07T01:03:16.792Z,30.80
2022-09-07T01:05:53.211Z,30.80
2022-09-07T01:08:24.000Z,30.90
2022-09-07T01:10:54.982Z,30.90
2022-09-07T01:13:25.666Z,30.80
2022-09-07T01:16:14.987Z,30.80
2022-09-07T01:18:53.720Z,30.70
2022-09-07T01:21:35.611Z,30.70
2022-09-07T01:24:43.843Z,30.50
2022-09-07T01:27:56.696Z,30.40
2022-09-07T01:30:28.352Z,30.30
2022-09-07T01:33:14.218Z,30.30
2022-09-07T01:35:52.888Z,30.00
2022-09-07T01:38:32.467Z,29.80
2022-09-07T01:41:07.660Z,29.70
2022-09-07T01:43:47.107Z,29.60
2022-09-07T01:46:22.182Z,29.50
2022-09-07T01:48:56.363Z,29.20
2022-09-07T01:51:31.319Z,29.10
2022-09-07T01:54:06.590Z,29.10
2022-09-07T01:56:42.237Z,29.10
2022-09-07T01:59:21.872Z,29.10
2022-09-07T02:01:57.181Z,29.20
2022-09-07T02:04:32.402Z,29.00
2022-09-07T02:07:09.171Z,28.80
2022-09-07T02:09:44.758Z,28.70
2022-09-07T02:12:21.446Z,28.50
2022-09-07T02:14:58.030Z,28.30
2022-09-07T02:17:34.616Z,28.20
2022-09-07T02:20:11.350Z,28.00
2022-09-07T02:22:46.150Z,27.80
2022-09-07T02:25:22.890Z,27.70
2022-09-07T02:27:57.651Z,27.60
2022-09-07T02:30:30.150Z,27.50
2022-09-07T02:33:00.917Z,27.40
2022-09-07T02:35:31.791Z,27.20
2022-09-07T02:38:05.735Z,27.30
2022-09-07T02:40:36.705Z,27.30
2022-09-07T02:43:10.856Z,27.30
2022-09-07T02:45:56.729Z,27.20
2022-09-07T02:48:35.383Z,27.00
2022-09-07T02:51:16.555Z,26.80
2022-09-07T02:54:01.818Z,26.70
2022-09-07T02:56:49.786Z,26.50
2022-09-07T02:59:29.808Z,26.40
2022-09-07T03:02:07.773Z,26.40
2022-09-07T03:04:47.515Z,26.40
2022-09-07T03:07:22.481Z,26.30
2022-09-07T03:09:57.566Z,26.30
2022-09-07T03:12:28.460Z,26.30
2022-09-07T03:14:59.174Z,26.30
2022-09-07T03:17:31.657Z,26.30
2022-09-07T03:20:02.379Z,26.30
2022-09-07T03:22:34.710Z,26.30
2022-09-07T03:25:06.132Z,26.10
2022-09-07T03:27:37.064Z,26.10
2022-09-07T03:30:09.840Z,25.90
2022-09-07T03:32:42.572Z,25.80
2022-09-07T03:35:14.543Z,25.80
2022-09-07T03:37:45.571Z,25.90
2022-09-07T03:40:17.995Z,25.90
2022-09-07T03:42:52.231Z,25.90
2022-09-07T03:45:23.002Z,26.00
2022-09-07T03:47:55.821Z,25.90
2022-09-07T03:50:26.520Z,25.90
2022-09-07T03:52:57.329Z,25.70
2022-09-07T03:55:28.154Z,25.60
2022-09-07T03:57:58.907Z,25.50
2022-09-07T04:00:29.594Z,25.40
2022-09-07T04:03:01.956Z,25.30
2022-09-07T04:05:32.664Z,25.30
2022-09-07T04:08:03.376Z,25.20
2022-09-07T04:10:34.117Z,25.10
2022-09-07T04:13:04.847Z,25.00
2022-09-07T04:15:35.927Z,24.90
2022-09-07T04:18:08.352Z,24.90
2022-09-07T04:20:39.168Z,24.80
2022-09-07T04:23:09.915Z,24.70
2022-09-07T04:25:40.669Z,24.60
2022-09-07T04:28:11.387Z,24.50
2022-09-07T04:30:42.196Z,24.40
2022-09-07T04:33:15.027Z,24.30
2022-09-07T04:35:46.321Z,24.30
2022-09-07T04:38:18.888Z,24.20
2022-09-07T04:40:49.634Z,24.10
2022-09-07T04:43:20.328Z,24.10
2022-09-07T04:45:51.082Z,24.00
2022-09-07T04:48:25.820Z,23.90
2022-09-07T04:50:56.558Z,23.80
2022-09-07T04:53:27.293Z,23.80
2022-09-07T04:56:00.307Z,23.70
2022-09-07T04:58:31.312Z,23.60
2022-09-07T05:01:04.423Z,23.50
2022-09-07T05:03:39.672Z,23.60
2022-09-07T05:06:11.071Z,23.50
2022-09-07T05:08:43.811Z,23.40
2022-09-07T05:11:15.882Z,23.30
2022-09-07T05:13:46.881Z,23.30
2022-09-07T05:16:19.464Z,23.20
2022-09-07T05:18:55.789Z,23.10
2022-09-07T05:21:28.237Z,23.00
2022-09-07T05:24:00.106Z,22.90
2022-09-07T05:26:33.587Z,22.90
2022-09-07T05:31:57.121Z,22.80
2022-09-07T05:34:30.081Z,22.80
2022-09-07T05:37:01.344Z,22.80
2022-09-07T05:39:32.514Z,22.80
2022-09-07T05:42:03.259Z,22.70
2022-09-07T05:47:11.683Z,22.60
2022-09-07T05:49:44.101Z,22.50
2022-09-07T05:52:14.834Z,22.40
2022-09-07T05:54:45.599Z,22.40
2022-09-07T05:57:16.663Z,22.40
2022-09-07T05:59:47.389Z,22.30
2022-09-07T06:02:18.629Z,22.30
2022-09-07T06:04:51.665Z,22.30
2022-09-07T06:07:23.229Z,22.40
2022-09-07T06:12:49.412Z,22.40
2022-09-07T06:15:20.493Z,22.50
2022-09-07T06:17:51.239Z,22.40
2022-09-07T06:20:23.589Z,22.40
2022-09-07T06:22:54.299Z,22.40
2022-09-07T06:25:25.039Z,22.30
2022-09-07T06:27:55.758Z,22.30
2022-09-07T06:30:26.561Z,22.40
2022-09-07T06:32:57.310Z,22.30
2022-09-07T06:35:29.643Z,22.30
2022-09-07T06:38:00.441Z,22.10
2022-09-07T06:40:31.163Z,22.10
2022-09-07T06:43:01.960Z,22.00
2022-09-07T06:45:32.701Z,22.10
2022-09-07T06:48:03.516Z,22.00
2022-09-07T06:50:35.935Z,22.00
2022-09-07T06:55:57.318Z,22.00
2022-09-07T06:58:28.098Z,21.90
2022-09-07T07:00:58.906Z,21.90
2022-09-07T07:03:31.068Z,21.80
2022-09-07T07:06:03.459Z,21.80
2022-09-07T07:08:34.498Z,21.80
2022-09-07T07:11:07.022Z,21.70
2022-09-07T07:13:38.171Z,21.60
2022-09-07T07:16:10.555Z,21.60
2022-09-07T07:18:42.021Z,21.50
2022-09-07T07:21:16.449Z,21.40
2022-09-07T07:23:47.200Z,21.40
2022-09-07T07:26:19.481Z,21.40
2022-09-07T07:29:06.537Z,21.40
2022-09-07T07:31:37.352Z,21.40
2022-09-07T07:34:08.229Z,21.40
2022-09-07T07:36:40.571Z,21.30
2022-09-07T07:42:03.396Z,21.30
2022-09-07T07:44:36.207Z,21.30
2022-09-07T07:47:07.183Z,21.30
2022-09-07T07:49:37.852Z,21.10
2022-09-07T07:55:42.878Z,21.10
2022-09-07T07:57:54.583Z,21.00
2022-09-07T08:00:43.757Z,20.90
2022-09-07T08:03:16.375Z,20.80
2022-09-07T08:05:47.046Z,20.70
2022-09-07T08:08:19.375Z,20.60
2022-09-07T08:10:50.207Z,20.50
2022-09-07T08:13:21.979Z,20.40
2022-09-07T08:15:52.937Z,20.50
2022-09-07T08:18:23.646Z,20.60
2022-09-07T08:20:54.301Z,20.50
2022-09-07T08:23:26.641Z,20.40
2022-09-07T08:25:59.167Z,20.30
2022-09-07T08:28:30.918Z,20.30
2022-09-07T08:31:01.960Z,20.20
2022-09-07T08:33:32.818Z,20.20
2022-09-07T08:36:04.665Z,20.20
2022-09-07T08:38:38.666Z,20.30
2022-09-07T08:41:37.398Z,20.20
2022-09-07T08:44:14.559Z,20.20
2022-09-07T08:46:50.864Z,20.30
2022-09-07T08:49:26.891Z,20.30
2022-09-07T08:52:01.238Z,20.20
2022-09-07T08:54:33.916Z,20.10
2022-09-07T08:57:21.547Z,20.10
2022-09-07T08:59:59.984Z,20.10
2022-09-07T09:02:35.169Z,20.00
2022-09-07T09:05:23.499Z,20.00
2022-09-07T09:08:03.878Z,19.90
2022-09-07T09:10:45.988Z,19.80
2022-09-07T09:13:20.815Z,19.80
2022-09-07T09:16:04.755Z,19.60
2022-09-07T09:18:47.220Z,19.50
2022-09-07T09:21:19.830Z,19.40
2022-09-07T09:23:53.977Z,19.40
2022-09-07T09:26:28.611Z,19.30
2022-09-07T09:28:59.487Z,19.30
2022-09-07T09:31:37.670Z,19.20
2022-09-07T09:34:14.268Z,19.10
2022-09-07T09:36:47.857Z,19.10
2022-09-07T09:39:33.754Z,19.00
2022-09-07T09:42:18.805Z,19.00
2022-09-07T09:44:50.392Z,19.00
2022-09-07T09:47:31.070Z,18.90
2022-09-07T09:50:03.970Z,18.80
2022-09-07T09:52:47.783Z,18.80
2022-09-07T09:55:35.089Z,18.80
2022-09-07T10:06:25.139Z,18.50
2022-09-07T10:08:59.768Z,18.50
2022-09-07T10:14:45.999Z,18.40
2022-09-07T10:17:24.922Z,18.30
2022-09-07T10:19:55.711Z,18.40
2022-09-07T10:22:35.760Z,18.40
2022-09-07T10:25:29.439Z,18.30
2022-09-07T10:28:07.506Z,18.20
2022-09-07T10:30:48.058Z,18.10
2022-09-07T10:33:26.960Z,18.00
2022-09-07T10:36:04.303Z,18.00
2022-09-07T10:38:42.888Z,18.00
2022-09-07T10:41:14.229Z,18.00
2022-09-07T10:43:46.838Z,18.00
2022-09-07T10:49:30.780Z,17.90
2022-09-07T10:52:15.297Z,17.90
2022-09-07T10:54:53.600Z,17.90
2022-09-07T10:57:45.658Z,17.90
2022-09-07T11:00:21.229Z,18.00
2022-09-07T11:03:25.547Z,18.00
2022-09-07T11:06:11.061Z,18.10
2022-09-07T11:12:01.153Z,18.00
2022-09-07T11:14:37.406Z,18.00
2022-09-07T11:17:15.759Z,18.00
2022-09-07T11:19:55.253Z,17.90
2022-09-07T11:22:39.658Z,18.00
2022-09-07T11:25:34.307Z,18.00
2022-09-07T11:28:11.379Z,17.90
2022-09-07T11:30:50.031Z,17.90
2022-09-07T11:33:24.427Z,17.80
2022-09-07T11:36:03.074Z,17.90
2022-09-07T11:38:37.636Z,17.80
2022-09-07T11:41:24.977Z,17.80
2022-09-07T11:44:10.543Z,17.80
2022-09-07T11:46:46.426Z,17.80
2022-09-07T11:49:22.186Z,17.80
2022-09-07T11:51:58.193Z,17.80
2022-09-07T11:54:43.759Z,17.70
2022-09-07T11:57:46.219Z,17.70
2022-09-07T12:00:21.693Z,17.70
2022-09-07T12:03:24.807Z,17.60
2022-09-07T12:06:26.373Z,17.60
2022-09-07T12:09:08.414Z,17.50
2022-09-07T12:12:21.412Z,17.50
2022-09-07T12:15:05.574Z,17.50
2022-09-07T12:17:55.054Z,17.40
2022-09-07T12:20:31.087Z,17.40
2022-09-07T12:23:05.685Z,17.40
2022-09-07T12:25:38.456Z,17.40
2022-09-07T12:28:19.851Z,17.30
2022-09-07T12:31:15.370Z,17.30
2022-09-07T12:33:47.307Z,17.40
2022-09-07T12:36:43.659Z,17.40
2022-09-07T12:39:27.648Z,17.50
2022-09-07T12:42:39.467Z,17.50
2022-09-07T12:45:45.322Z,17.40
2022-09-07T12:48:32.139Z,17.30
2022-09-07T12:51:09.572Z,17.30
2022-09-07T12:53:47.914Z,17.30
2022-09-07T12:56:31.037Z,17.30
2022-09-07T12:59:20.069Z,17.40
2022-09-07T13:02:01.363Z,17.30
2022-09-07T13:04:49.644Z,17.40
2022-09-07T13:08:08.378Z,17.30
2022-09-07T13:10:41.058Z,17.40
2022-09-07T13:19:09.640Z,17.40
2022-09-07T13:21:49.387Z,17.40
2022-09-07T13:24:55.927Z,17.30
2022-09-07T13:27:47.515Z,17.30
2022-09-07T13:30:33.776Z,17.20
2022-09-07T13:33:41.003Z,17.10
2022-09-07T13:36:39.551Z,17.00
2022-09-07T13:39:15.120Z,16.90
2022-09-07T13:41:50.688Z,16.90
2022-09-07T13:44:26.740Z,16.80
2022-09-07T13:47:09.245Z,16.80
2022-09-07T13:50:06.908Z,16.80
2022-09-07T13:52:54.343Z,16.80
2022-09-07T13:55:32.400Z,16.80
2022-09-07T13:58:16.063Z,16.90
2022-09-07T14:00:57.732Z,16.90
2022-09-07T14:03:31.077Z,17.00
2022-09-07T14:06:44.633Z,17.10
2022-09-07T14:09:20.359Z,17.10
2022-09-07T14:11:52.364Z,17.10
2022-09-07T14:14:25.583Z,17.20
2022-09-07T14:17:04.303Z,17.20
2022-09-07T14:19:40.586Z,17.20
2022-09-07T14:22:15.791Z,17.10
2022-09-07T14:24:58.880Z,17.10
2022-09-07T14:27:36.214Z,17.10
2022-09-07T14:30:29.587Z,17.20
2022-09-07T14:33:03.384Z,17.20
2022-09-07T14:35:40.289Z,17.30
2022-09-07T14:39:04.032Z,17.40
2022-09-07T14:41:17.544Z,17.60
2022-09-07T14:43:55.968Z,17.60
2022-09-07T14:46:28.816Z,17.80
2022-09-07T14:49:01.304Z,17.90
2022-09-07T14:51:36.506Z,18.10
2022-09-07T14:54:09.670Z,18.20
2022-09-07T14:56:43.823Z,18.30
2022-09-07T14:59:35.492Z,18.50
2022-09-07T15:02:38.783Z,18.60
2022-09-07T15:05:28.323Z,18.50
2022-09-07T15:08:00.589Z,18.60
2022-09-07T15:10:42.391Z,18.60
2022-09-07T15:13:35.017Z,18.80
2022-09-07T15:16:07.380Z,18.80
2022-09-07T15:18:56.844Z,19.10
2022-09-07T15:21:29.542Z,19.20
2022-09-07T15:24:01.047Z,19.30
2022-09-07T15:29:29.113Z,19.70
2022-09-07T15:32:04.525Z,20.20
2022-09-07T15:34:37.386Z,21.80
2022-09-07T15:39:58.864Z,22.70
2022-09-07T15:45:21.908Z,25.60
2022-09-07T15:47:53.705Z,27.60
2022-09-07T15:50:24.532Z,29.10
2022-09-07T15:52:55.231Z,30.30
2022-09-07T15:55:26.162Z,31.10
2022-09-07T15:58:11.447Z,32.20
2022-09-07T16:00:44.467Z,32.20
2022-09-07T16:03:15.464Z,32.20
2022-09-07T16:05:46.788Z,31.90
2022-09-07T16:08:25.635Z,32.70
2022-09-07T16:11:05.295Z,33.40
2022-09-07T16:13:37.124Z,33.80
2022-09-07T16:16:11.068Z,33.20
2022-09-07T16:18:46.591Z,33.50
2022-09-07T16:21:18.595Z,33.60
2022-09-07T16:23:51.279Z,33.70
2022-09-07T16:26:23.437Z,33.30
2022-09-07T16:28:56.556Z,33.00
2022-09-07T16:31:32.611Z,32.90
2022-09-07T16:34:05.176Z,33.90
2022-09-07T16:36:35.848Z,34.60
2022-09-07T16:39:06.716Z,34.30
2022-09-07T16:41:38.388Z,34.60
2022-09-07T16:44:09.219Z,34.70
2022-09-07T16:46:41.548Z,34.00
2022-09-07T16:49:13.472Z,33.70
2022-09-07T16:51:44.158Z,34.00
2022-09-07T16:54:16.585Z,33.30
2022-09-07T16:56:48.248Z,33.80
2022-09-07T16:59:21.984Z,33.80
2022-09-07T17:01:54.325Z,33.80
2022-09-07T17:04:25.576Z,34.50
2022-09-07T17:06:56.308Z,34.10
2022-09-07T17:09:29.393Z,33.90
2022-09-07T17:12:00.191Z,35.20
2022-09-07T17:14:30.915Z,34.50
2022-09-07T17:17:03.504Z,33.70
2022-09-07T17:19:34.327Z,34.10
2022-09-07T17:22:06.253Z,34.60
2022-09-07T17:24:36.977Z,34.70
2022-09-07T17:27:08.064Z,34.60
2022-09-07T17:29:38.761Z,34.30
2022-09-07T17:32:26.620Z,33.10
2022-09-07T17:34:57.592Z,32.60
2022-09-07T17:37:28.265Z,33.60
2022-09-07T17:39:59.023Z,34.80
2022-09-07T17:45:20.468Z,34.80
2022-09-07T17:47:52.830Z,35.50
2022-09-07T17:50:23.543Z,36.00
2022-09-07T17:52:54.233Z,35.60
2022-09-07T17:55:24.898Z,36.00
2022-09-07T17:57:55.569Z,35.70
2022-09-07T18:00:27.229Z,35.80
2022-09-07T18:02:59.549Z,36.40
2022-09-07T18:05:30.240Z,34.50
2022-09-07T18:08:00.988Z,33.60
2022-09-07T18:11:45.187Z,33.70
2022-09-07T18:13:33.561Z,33.30
2022-09-07T18:16:13.773Z,33.50
2022-09-07T18:18:46.379Z,33.60
2022-09-07T18:21:19.050Z,34.30
2022-09-07T18:23:50.250Z,34.50
2022-09-07T18:26:27.060Z,33.10
2022-09-07T18:29:13.102Z,34.10
2022-09-07T18:31:49.451Z,34.40
2022-09-07T18:34:21.822Z,34.60
2022-09-07T18:36:52.509Z,34.70
2022-09-07T18:39:23.555Z,34.90
2022-09-07T18:41:54.241Z,34.60
2022-09-07T18:47:28.079Z,34.10
2022-09-07T18:50:01.796Z,34.10
2022-09-07T18:55:24.010Z,35.00
2022-09-07T18:57:55.711Z,34.40
2022-09-07T19:00:26.568Z,34.00
2022-09-07T19:02:57.235Z,34.40
2022-09-07T19:08:20.182Z,34.60
2022-09-07T19:10:50.932Z,34.80
2022-09-07T19:13:21.622Z,34.50
2022-09-07T19:15:52.317Z,34.90
2022-09-07T19:18:22.964Z,34.30
2022-09-07T19:20:55.240Z,33.90
2022-09-07T19:23:25.911Z,34.30
2022-09-07T19:25:56.602Z,34.60
2022-09-07T19:28:27.286Z,34.20
2022-09-07T19:30:58.199Z,33.10
2022-09-07T19:33:28.915Z,32.30
2022-09-07T19:36:05.633Z,31.60
2022-09-07T19:38:36.479Z,31.30
2022-09-07T19:41:07.223Z,31.70
2022-09-07T19:43:39.297Z,31.70
2022-09-07T19:46:11.233Z,31.50
2022-09-07T19:48:42.087Z,31.40
2022-09-07T19:51:15.782Z,30.80
2022-09-07T19:53:48.750Z,30.20
2022-09-07T19:56:22.608Z,29.70
2022-09-07T19:58:53.363Z,29.40
2022-09-07T20:01:25.731Z,29.60
2022-09-07T20:04:00.649Z,29.60
2022-09-07T20:06:34.670Z,29.60
2022-09-07T20:09:05.376Z,29.30
2022-09-07T20:11:36.993Z,29.60
2022-09-07T20:14:08.328Z,29.80
2022-09-07T20:16:40.217Z,30.30
2022-09-07T20:19:12.114Z,30.10
2022-09-07T20:21:44.736Z,30.10
2022-09-07T20:24:15.631Z,30.30
2022-09-07T20:26:46.332Z,30.00
2022-09-07T20:29:27.437Z,29.70
2022-09-07T20:31:59.918Z,29.40
2022-09-07T20:34:31.429Z,29.10
2022-09-07T20:37:03.749Z,28.90
2022-09-07T20:39:38.902Z,29.10
2022-09-07T20:42:10.305Z,28.90
2022-09-07T20:44:40.975Z,29.10
2022-09-07T20:47:11.715Z,29.80
2022-09-07T20:49:42.429Z,30.50
2022-09-07T20:52:14.747Z,30.90
2022-09-07T20:54:45.436Z,30.80
2022-09-07T20:57:16.145Z,30.70
2022-09-07T20:59:46.773Z,30.40
2022-09-07T21:02:17.469Z,30.50
2022-09-07T21:04:48.273Z,30.70
2022-09-07T21:07:20.581Z,30.60
2022-09-07T21:09:51.283Z,30.60
2022-09-07T21:12:22.246Z,30.60
2022-09-07T21:14:52.942Z,30.60
2022-09-07T21:17:23.571Z,30.60
2022-09-07T21:19:54.258Z,30.80
2022-09-07T21:22:26.579Z,30.80
2022-09-07T21:24:57.249Z,30.70
2022-09-07T21:27:28.076Z,30.80
2022-09-07T21:29:58.728Z,30.90
2022-09-07T21:32:29.397Z,31.10
2022-09-07T21:35:00.072Z,31.00
2022-09-07T21:37:32.548Z,30.70
2022-09-07T21:40:03.923Z,30.80
2022-09-07T21:42:34.687Z,30.80
2022-09-07T21:45:05.440Z,30.60
2022-09-07T21:47:36.477Z,30.60
2022-09-07T21:50:08.170Z,30.70
2022-09-07T21:52:40.665Z,31.00
2022-09-07T21:55:12.263Z,31.10
2022-09-07T21:57:43.941Z,31.00
2022-09-07T22:00:16.990Z,31.00
2022-09-07T22:02:47.669Z,31.00
2022-09-07T22:05:19.164Z,30.90
2022-09-07T22:07:51.521Z,30.70
2022-09-07T22:10:22.212Z,30.50
2022-09-07T22:12:52.911Z,30.40
2022-09-07T22:15:23.592Z,30.00
2022-09-07T22:17:56.816Z,29.70
2022-09-07T22:20:27.481Z,29.80
2022-09-07T22:22:59.859Z,29.70
2022-09-07T22:25:30.560Z,29.60
2022-09-07T22:28:01.517Z,29.50
2022-09-07T22:30:32.187Z,29.50
2022-09-07T22:33:03.552Z,29.40
2022-09-07T22:35:34.200Z,29.30
2022-09-07T22:38:06.535Z,29.10
2022-09-07T22:40:37.213Z,28.90
2022-09-07T22:43:08.868Z,28.80
2022-09-07T22:45:39.535Z,28.80
2022-09-07T22:48:10.254Z,28.80
2022-09-07T22:50:40.962Z,28.70
2022-09-07T22:53:13.315Z,28.50
2022-09-07T22:55:43.989Z,28.60
2022-09-07T22:58:14.678Z,28.50
2022-09-07T23:00:47.662Z,28.30
2022-09-07T23:03:18.525Z,28.10
2022-09-07T23:05:49.280Z,28.00
2022-09-07T23:08:21.607Z,27.80
2022-09-07T23:10:52.312Z,27.70
2022-09-07T23:13:23.427Z,27.80
2022-09-07T23:15:54.154Z,28.00
2022-09-07T23:18:25.844Z,27.90
2022-09-07T23:21:00.975Z,27.90
2022-09-07T23:23:33.474Z,27.80
2022-09-07T23:26:06.204Z,27.60
2022-09-07T23:28:37.660Z,27.50
2022-09-07T23:31:08.496Z,27.30
2022-09-07T23:33:39.236Z,27.30
2022-09-07T23:36:10.410Z,27.40
2022-09-07T23:38:42.755Z,27.40
2022-09-07T23:41:14.674Z,27.20
2022-09-07T23:43:45.532Z,27.10
2022-09-07T23:46:16.837Z,26.90
2022-09-07T23:48:48.324Z,26.70
2022-09-07T23:51:23.773Z,26.40
2022-09-07T23:53:56.750Z,26.30
2022-09-07T23:56:27.423Z,26.40
2022-09-07T23:58:58.133Z,26.40
